createdAt,value
2019-03-23T00:00:19.291Z,25.82
2019-03-23T00:02:45.454Z,27.70
2019-03-23T00:05:11.953Z,23.05
2019-03-23T00:07:38.240Z,29.23
2019-03-23T00:10:05.803Z,26.75
2019-03-23T00:12:32.980Z,29.37
2019-03-23T00:14:59.155Z,27.98
2019-03-23T00:17:25.315Z,21.80
2019-03-23T00:19:51.488Z,22.37
2019-03-23T00:22:17.679Z,24.02
2019-03-23T00:24:43.852Z,23.00
2019-03-23T00:27:10.019Z,20.05
2019-03-23T00:29:36.200Z,22.62
2019-03-23T00:32:02.547Z,20.57
2019-03-23T00:34:28.722Z,22.65
2019-03-23T00:36:54.927Z,26.33
2019-03-23T00:39:21.135Z,28.42
2019-03-23T00:41:47.312Z,22.90
2019-03-23T00:44:13.467Z,26.37
2019-03-23T00:46:39.655Z,22.42
2019-03-23T00:49:05.812Z,20.20
2019-03-23T00:51:31.976Z,21.50
2019-03-23T00:53:58.199Z,20.00
2019-03-23T00:56:24.371Z,21.23
2019-03-23T00:58:50.527Z,21.68
2019-03-23T01:01:16.891Z,23.75
2019-03-23T01:03:43.161Z,24.57
2019-03-23T01:06:09.327Z,18.30
2019-03-23T01:08:35.498Z,23.52
2019-03-23T01:11:01.679Z,19.52
2019-03-23T01:13:27.846Z,22.07
2019-03-23T01:15:54.017Z,21.05
2019-03-23T01:18:20.176Z,24.00
2019-03-23T01:20:49.957Z,18.23
2019-03-23T01:23:14.432Z,19.52
2019-03-23T01:25:40.604Z,20.37
2019-03-23T01:28:06.781Z,19.27
2019-03-23T01:30:34.861Z,21.55
2019-03-23T01:33:01.031Z,21.37
2019-03-23T01:35:27.192Z,20.95
2019-03-23T01:37:53.398Z,21.30
2019-03-23T01:40:19.581Z,20.23
2019-03-23T01:42:45.736Z,25.05
2019-03-23T01:45:12.913Z,20.55
2019-03-23T01:47:39.188Z,21.95
2019-03-23T01:50:06.279Z,23.57
2019-03-23T01:52:33.827Z,19.62
2019-03-23T01:54:59.984Z,18.70
2019-03-23T01:57:26.347Z,20.12
2019-03-23T01:59:52.519Z,19.50
2019-03-23T02:02:18.695Z,22.60
2019-03-23T02:04:45.259Z,22.22
2019-03-23T02:07:13.984Z,21.10
2019-03-23T02:09:39.522Z,21.00
2019-03-23T02:12:05.711Z,19.12
2019-03-23T02:14:31.875Z,19.07
2019-03-23T02:16:58.037Z,24.60
2019-03-23T02:19:24.212Z,19.82
2019-03-23T02:21:50.367Z,24.00
2019-03-23T02:24:16.552Z,19.02
2019-03-23T02:26:42.716Z,22.13
2019-03-23T02:29:08.895Z,20.25
2019-03-23T02:31:35.079Z,20.85
2019-03-23T02:34:01.233Z,19.73
2019-03-23T02:36:27.402Z,18.02
2019-03-23T02:38:53.584Z,15.35
2019-03-23T02:41:19.755Z,18.07
2019-03-23T02:43:45.924Z,18.27
2019-03-23T02:46:12.123Z,17.90
2019-03-23T02:48:38.365Z,19.73
2019-03-23T02:51:04.534Z,17.07
2019-03-23T02:53:30.683Z,17.30
2019-03-23T02:55:56.850Z,14.80
2019-03-23T02:58:23.024Z,20.40
2019-03-23T03:00:49.197Z,16.82
2019-03-23T03:03:15.487Z,20.80
2019-03-23T03:05:41.657Z,17.02
2019-03-23T03:08:07.825Z,17.45
2019-03-23T03:10:39.260Z,17.02
2019-03-23T03:13:05.428Z,16.40
2019-03-23T03:15:31.579Z,16.25
2019-03-23T03:17:57.812Z,16.07
2019-03-23T03:20:23.991Z,19.65
2019-03-23T03:22:50.178Z,17.12
2019-03-23T03:25:16.353Z,17.73
2019-03-23T03:27:42.506Z,20.00
2019-03-23T03:30:09.988Z,16.60
2019-03-23T03:32:36.156Z,16.95
2019-03-23T03:35:04.140Z,18.40
2019-03-23T03:37:30.366Z,15.88
2019-03-23T03:39:56.539Z,18.65
2019-03-23T03:42:23.024Z,22.87
2019-03-23T03:44:49.200Z,19.17
2019-03-23T03:47:15.353Z,15.08
2019-03-23T03:49:41.567Z,18.80
2019-03-23T03:52:07.732Z,16.52
2019-03-23T03:54:33.913Z,18.20
2019-03-23T03:57:00.093Z,19.30
2019-03-23T03:59:26.269Z,18.75
2019-03-23T04:01:52.437Z,17.62
2019-03-23T04:04:18.595Z,20.70
2019-03-23T04:06:44.754Z,15.98
2019-03-23T04:09:10.947Z,19.82
2019-03-23T04:11:37.093Z,18.62
2019-03-23T04:14:03.301Z,15.15
2019-03-23T04:16:29.538Z,20.90
2019-03-23T04:18:55.808Z,15.68
2019-03-23T04:21:21.959Z,19.75
2019-03-23T04:23:48.171Z,20.77
2019-03-23T04:26:14.332Z,19.02
2019-03-23T04:28:40.534Z,19.82
2019-03-23T04:31:06.721Z,17.80
2019-03-23T04:33:32.885Z,20.35
2019-03-23T04:35:59.055Z,17.77
2019-03-23T04:38:25.213Z,18.82
2019-03-23T04:40:51.403Z,17.12
2019-03-23T04:43:17.543Z,16.55
2019-03-23T04:45:43.715Z,16.95
2019-03-23T04:48:09.883Z,19.17
2019-03-23T04:50:36.068Z,19.27
2019-03-23T04:53:03.416Z,16.40
2019-03-23T04:55:29.588Z,19.32
2019-03-23T04:57:55.743Z,19.23
2019-03-23T05:00:21.915Z,14.70
2019-03-23T05:02:48.107Z,17.42
2019-03-23T05:05:14.256Z,17.95
2019-03-23T05:07:40.495Z,17.30
2019-03-23T05:10:07.779Z,17.95
2019-03-23T05:12:34.508Z,19.37
2019-03-23T05:15:00.787Z,17.87
2019-03-23T05:17:26.960Z,14.80
2019-03-23T05:19:53.144Z,18.92
2019-03-23T05:22:19.305Z,17.55
2019-03-23T05:24:46.456Z,19.02
2019-03-23T05:27:12.663Z,16.97
2019-03-23T05:29:38.807Z,16.73
2019-03-23T05:32:04.976Z,18.15
2019-03-23T05:34:31.129Z,19.52
2019-03-23T05:36:57.320Z,18.10
2019-03-23T05:39:23.477Z,17.65
2019-03-23T05:41:49.675Z,15.28
2019-03-23T05:44:15.843Z,18.73
2019-03-23T05:46:42.011Z,18.30
2019-03-23T05:49:08.157Z,16.48
2019-03-23T05:51:34.311Z,17.20
2019-03-23T05:54:00.480Z,18.85
2019-03-23T05:56:26.648Z,18.77
2019-03-23T05:58:53.836Z,13.30
2019-03-23T06:01:20.045Z,15.13
2019-03-23T06:03:46.228Z,15.15
2019-03-23T06:06:12.395Z,15.28
2019-03-23T06:08:38.575Z,13.95
2019-03-23T06:11:05.839Z,15.60
2019-03-23T06:13:32.011Z,16.25
2019-03-23T06:15:58.247Z,16.50
2019-03-23T06:18:24.403Z,17.42
2019-03-23T06:20:50.563Z,12.75
2019-03-23T06:23:16.736Z,16.65
2019-03-23T06:25:42.917Z,15.10
2019-03-23T06:28:09.104Z,19.65
2019-03-23T06:30:35.283Z,17.15
2019-03-23T06:33:01.437Z,16.23
2019-03-23T06:35:29.700Z,16.02
2019-03-23T06:37:55.876Z,14.55
2019-03-23T06:40:22.151Z,12.63
2019-03-23T06:42:59.171Z,15.85
2019-03-23T06:45:16.467Z,12.65
2019-03-23T06:47:42.652Z,14.13
2019-03-23T06:50:10.007Z,14.63
2019-03-23T06:52:36.189Z,17.10
2019-03-23T06:55:05.580Z,13.48
2019-03-23T06:57:31.779Z,16.02
2019-03-23T06:59:57.944Z,11.18
2019-03-23T07:02:24.104Z,14.38
2019-03-23T07:04:50.276Z,16.77
2019-03-23T07:07:16.483Z,17.40
2019-03-23T07:09:42.634Z,14.38
2019-03-23T07:12:08.790Z,17.05
2019-03-23T07:14:34.967Z,12.53
2019-03-23T07:17:01.256Z,15.38
2019-03-23T07:19:27.443Z,13.62
2019-03-23T07:21:53.629Z,16.00
2019-03-23T07:24:19.961Z,15.40
2019-03-23T07:26:46.268Z,11.08
2019-03-23T07:29:12.420Z,14.47
2019-03-23T07:31:38.592Z,15.30
2019-03-23T07:34:06.209Z,13.83
2019-03-23T07:36:32.549Z,11.97
2019-03-23T07:38:58.788Z,9.40
2019-03-23T07:41:24.954Z,14.10
2019-03-23T07:43:51.136Z,14.25
2019-03-23T07:46:17.304Z,12.60
2019-03-23T07:48:43.508Z,13.28
2019-03-23T07:51:09.774Z,13.93
2019-03-23T07:53:36.081Z,11.73
2019-03-23T07:56:02.267Z,13.00
2019-03-23T07:58:28.502Z,11.45
2019-03-23T08:00:54.972Z,13.30
2019-03-23T08:03:21.139Z,10.88
2019-03-23T08:05:47.307Z,11.70
2019-03-23T08:08:13.468Z,13.60
2019-03-23T08:10:39.640Z,11.48
2019-03-23T08:13:05.799Z,13.38
2019-03-23T08:15:31.972Z,13.43
2019-03-23T08:17:58.126Z,13.58
2019-03-23T08:20:24.340Z,13.13
2019-03-23T08:22:51.713Z,13.35
2019-03-23T08:25:17.888Z,13.18
2019-03-23T08:27:44.048Z,17.42
2019-03-23T08:30:10.428Z,15.43
2019-03-23T08:32:36.713Z,18.62
2019-03-23T08:35:03.995Z,19.37
2019-03-23T08:37:30.144Z,20.62
2019-03-23T08:39:56.325Z,22.48
2019-03-23T08:42:22.523Z,19.55
2019-03-23T08:44:48.675Z,21.27
2019-03-23T08:47:14.885Z,24.32
2019-03-23T08:49:41.043Z,26.05
2019-03-23T08:52:07.208Z,22.37
2019-03-23T08:54:33.607Z,21.27
2019-03-23T08:56:59.803Z,21.52
2019-03-23T08:59:25.964Z,27.13
2019-03-23T09:01:53.663Z,23.80
2019-03-23T09:04:19.884Z,27.00
2019-03-23T09:06:46.037Z,29.00
2019-03-23T09:09:12.200Z,27.15
2019-03-23T09:11:38.496Z,24.75
2019-03-23T09:14:04.648Z,25.62
2019-03-23T09:16:30.808Z,23.65
2019-03-23T09:18:57.028Z,28.07
2019-03-23T09:21:23.222Z,21.93
2019-03-23T09:23:49.373Z,24.75
2019-03-23T09:26:15.596Z,29.32
2019-03-23T09:28:41.780Z,30.10
2019-03-23T09:31:07.948Z,27.50
2019-03-23T09:33:34.104Z,29.00
2019-03-23T09:36:00.331Z,28.92
2019-03-23T09:38:26.504Z,29.67
2019-03-23T09:40:52.880Z,28.98
2019-03-23T09:43:19.068Z,30.50
2019-03-23T09:45:45.312Z,35.35
2019-03-23T09:48:11.506Z,34.85
2019-03-23T09:50:37.687Z,35.52
2019-03-23T09:53:03.859Z,39.25
2019-03-23T09:55:30.013Z,34.03
2019-03-23T09:57:56.196Z,33.38
2019-03-23T10:00:22.441Z,34.63
2019-03-23T10:02:51.795Z,37.63
2019-03-23T10:05:17.974Z,35.40
2019-03-23T10:07:44.220Z,35.58
2019-03-23T10:10:21.000Z,39.50
2019-03-23T10:12:38.520Z,32.88
2019-03-23T10:15:05.872Z,33.02
2019-03-23T10:17:33.030Z,34.48
2019-03-23T10:19:59.195Z,35.23
2019-03-23T10:22:25.477Z,38.90
2019-03-23T10:24:51.656Z,34.90
2019-03-23T10:27:17.843Z,34.65
2019-03-23T10:29:44.040Z,33.15
2019-03-23T10:32:10.212Z,31.75
2019-03-23T10:34:36.387Z,34.67
2019-03-23T10:37:02.803Z,35.00
2019-03-23T10:39:28.970Z,36.58
2019-03-23T10:41:55.144Z,38.38
2019-03-23T10:44:22.409Z,34.60
2019-03-23T10:46:48.616Z,37.08
2019-03-23T10:49:14.777Z,37.78
2019-03-23T10:51:40.935Z,35.28
2019-03-23T10:54:07.121Z,36.42
2019-03-23T10:56:33.338Z,35.92
2019-03-23T10:58:59.571Z,32.75
2019-03-23T11:01:25.852Z,37.75
2019-03-23T11:03:53.135Z,36.42
2019-03-23T11:06:19.302Z,38.60
2019-03-23T11:08:45.468Z,35.73
2019-03-23T11:11:11.641Z,38.28
2019-03-23T11:13:37.838Z,36.60
2019-03-23T11:16:04.032Z,38.67
2019-03-23T11:18:30.184Z,36.10
2019-03-23T11:20:56.353Z,36.33
2019-03-23T11:23:22.529Z,41.25
2019-03-23T11:25:48.719Z,37.58
2019-03-23T11:28:14.893Z,38.65
2019-03-23T11:30:42.184Z,40.00
2019-03-23T11:33:08.335Z,37.83
2019-03-23T11:35:34.509Z,39.67
2019-03-23T11:38:02.416Z,39.48
2019-03-23T11:40:29.131Z,38.90
2019-03-23T11:42:55.741Z,39.90
2019-03-23T11:45:21.952Z,53.83
2019-03-23T11:47:48.131Z,39.63
2019-03-23T11:50:14.331Z,43.50
2019-03-23T11:52:40.514Z,42.67
2019-03-23T11:55:07.205Z,43.65
2019-03-23T11:57:33.800Z,39.88
2019-03-23T12:00:00.023Z,41.95
2019-03-23T12:02:26.265Z,36.93
2019-03-23T12:04:52.461Z,38.38
2019-03-23T12:07:18.615Z,38.42
2019-03-23T12:09:44.796Z,40.30
2019-03-23T12:12:10.965Z,41.40
2019-03-23T12:14:38.225Z,41.75
2019-03-23T12:17:04.385Z,39.25
2019-03-23T12:19:30.577Z,43.17
2019-03-23T12:21:56.826Z,43.25
2019-03-23T12:24:23.084Z,36.90
2019-03-23T12:26:49.271Z,40.78
2019-03-23T12:29:15.496Z,39.75
2019-03-23T12:31:41.649Z,38.50
2019-03-23T12:34:08.278Z,40.15
2019-03-23T12:36:34.853Z,40.23
2019-03-23T12:39:01.040Z,39.08
2019-03-23T12:41:27.255Z,42.93
2019-03-23T12:43:53.407Z,38.85
2019-03-23T12:46:19.591Z,43.60
2019-03-23T12:48:45.753Z,37.60
2019-03-23T12:51:11.931Z,40.75
2019-03-23T12:53:38.104Z,39.27
2019-03-23T12:56:04.271Z,39.98
2019-03-23T12:58:30.749Z,42.15
2019-03-23T13:00:56.936Z,39.42
2019-03-23T13:03:23.116Z,41.83
2019-03-23T13:05:49.335Z,38.65
2019-03-23T13:08:15.487Z,36.35
2019-03-23T13:10:41.675Z,40.60
2019-03-23T13:13:07.951Z,38.10
2019-03-23T13:15:34.095Z,44.85
2019-03-23T13:18:02.975Z,38.92
2019-03-23T13:20:28.966Z,44.48
2019-03-23T13:22:55.238Z,43.92
2019-03-23T13:25:21.398Z,45.30
2019-03-23T13:27:47.576Z,44.38
2019-03-23T13:30:16.336Z,44.85
2019-03-23T13:32:42.614Z,44.23
2019-03-23T13:35:09.620Z,39.92
2019-03-23T13:37:35.792Z,44.38
2019-03-23T13:40:05.655Z,43.50
2019-03-23T13:42:31.831Z,43.48
2019-03-23T13:44:57.988Z,44.95
2019-03-23T13:47:24.176Z,46.18
2019-03-23T13:49:50.373Z,44.42
2019-03-23T13:52:16.593Z,44.10
2019-03-23T13:54:42.787Z,46.60
2019-03-23T13:57:08.943Z,48.50
2019-03-23T13:59:35.110Z,45.10
2019-03-23T14:02:01.272Z,43.85
2019-03-23T14:04:27.452Z,43.95
2019-03-23T14:06:53.599Z,45.73
2019-03-23T14:09:19.774Z,42.98
2019-03-23T14:11:54.701Z,45.90
2019-03-23T14:14:14.013Z,46.20
2019-03-23T14:16:40.227Z,47.83
2019-03-23T14:19:06.392Z,48.92
2019-03-23T14:21:32.605Z,43.30
2019-03-23T14:23:58.782Z,46.33
2019-03-23T14:26:24.955Z,47.67
2019-03-23T14:28:51.151Z,50.60
2019-03-23T14:31:17.313Z,46.88
2019-03-23T14:33:43.484Z,47.83
2019-03-23T14:36:09.727Z,52.53
2019-03-23T14:38:35.997Z,49.65
2019-03-23T14:41:02.177Z,48.83
2019-03-23T14:43:28.445Z,49.53
2019-03-23T14:45:54.632Z,49.23
2019-03-23T14:48:20.827Z,47.40
2019-03-23T14:50:46.999Z,45.73
2019-03-23T14:53:13.147Z,48.73
2019-03-23T14:55:39.348Z,47.13
2019-03-23T14:58:05.521Z,45.08
2019-03-23T15:00:32.308Z,43.15
2019-03-23T15:02:58.452Z,41.75
2019-03-23T15:05:24.651Z,43.87
2019-03-23T15:07:50.836Z,44.55
2019-03-23T15:10:16.985Z,41.53
2019-03-23T15:12:43.137Z,48.40
2019-03-23T15:15:09.414Z,43.65
2019-03-23T15:17:35.571Z,46.37
2019-03-23T15:20:04.072Z,45.88
2019-03-23T15:22:30.567Z,44.67
2019-03-23T15:24:56.725Z,42.03
2019-03-23T15:27:22.879Z,48.63
2019-03-23T15:29:49.049Z,43.08
2019-03-23T15:32:16.199Z,41.50
2019-03-23T15:34:42.402Z,39.95
2019-03-23T15:37:08.563Z,42.17
2019-03-23T15:39:34.727Z,43.40
2019-03-23T15:42:00.908Z,41.65
2019-03-23T15:44:27.062Z,43.42
2019-03-23T15:46:53.216Z,45.78
2019-03-23T15:49:19.401Z,47.38
2019-03-23T15:51:45.597Z,43.95
2019-03-23T15:54:11.821Z,47.70
2019-03-23T15:56:38.036Z,53.08
2019-03-23T15:59:04.256Z,58.02
2019-03-23T16:01:30.437Z,52.13
2019-03-23T16:03:56.600Z,53.50
2019-03-23T16:06:22.784Z,52.20
2019-03-23T16:08:48.943Z,56.77
2019-03-23T16:11:15.154Z,51.20
2019-03-23T16:13:42.458Z,54.48
2019-03-23T16:16:09.269Z,49.40
2019-03-23T16:18:35.483Z,50.48
2019-03-23T16:21:01.647Z,53.87
2019-03-23T16:23:27.821Z,54.58
2019-03-23T16:25:54.004Z,54.42
2019-03-23T16:28:20.158Z,54.48
2019-03-23T16:30:46.351Z,62.08
2019-03-23T16:33:12.504Z,53.10
2019-03-23T16:35:38.689Z,54.42
2019-03-23T16:38:04.868Z,56.33
2019-03-23T16:40:31.039Z,52.70
2019-03-23T16:42:57.195Z,55.40
2019-03-23T16:45:23.407Z,54.67
2019-03-23T16:47:49.665Z,58.33
2019-03-23T16:50:15.820Z,56.95
2019-03-23T16:52:41.991Z,54.77
2019-03-23T16:55:08.951Z,61.28
2019-03-23T16:57:36.413Z,52.62
2019-03-23T17:00:08.991Z,58.45
2019-03-23T17:02:35.339Z,60.90
2019-03-23T17:05:01.525Z,57.08
2019-03-23T17:07:27.818Z,58.52
2019-03-23T17:09:53.965Z,56.73
2019-03-23T17:12:20.208Z,62.55
2019-03-23T17:14:46.363Z,66.55
2019-03-23T17:17:12.836Z,55.88
2019-03-23T17:19:39.027Z,54.93
2019-03-23T17:22:05.211Z,55.28
2019-03-23T17:24:31.405Z,59.50
2019-03-23T17:26:57.578Z,56.95
2019-03-23T17:29:23.736Z,58.05
2019-03-23T17:31:49.928Z,54.45
2019-03-23T17:34:16.081Z,61.42
2019-03-23T17:36:42.596Z,56.63
2019-03-23T17:39:08.767Z,58.28
2019-03-23T17:41:35.128Z,58.65
2019-03-23T17:44:02.392Z,56.60
2019-03-23T17:46:28.586Z,57.60
2019-03-23T17:48:54.755Z,61.42
2019-03-23T17:51:20.928Z,59.80
2019-03-23T17:53:47.087Z,59.08
2019-03-23T17:56:13.239Z,60.12
2019-03-23T17:58:39.418Z,65.92
2019-03-23T18:01:06.491Z,56.73
2019-03-23T18:03:32.648Z,61.88
2019-03-23T18:05:58.869Z,62.48
2019-03-23T18:08:25.124Z,61.30
2019-03-23T18:10:51.329Z,66.60
2019-03-23T18:13:17.480Z,58.98
2019-03-23T18:15:43.666Z,55.40
2019-03-23T18:18:09.915Z,66.47
2019-03-23T18:20:36.088Z,63.02
2019-03-23T18:23:02.547Z,60.78
2019-03-23T18:25:28.716Z,62.17
2019-03-23T18:27:54.868Z,60.70
2019-03-23T18:30:36.931Z,58.45
2019-03-23T18:33:04.307Z,61.42
2019-03-23T18:35:30.493Z,62.03
2019-03-23T18:37:56.692Z,67.32
2019-03-23T18:40:22.950Z,66.90
2019-03-23T18:42:49.127Z,61.25
2019-03-23T18:45:15.296Z,67.08
2019-03-23T18:47:41.451Z,66.15
2019-03-23T18:50:07.819Z,65.85
2019-03-23T18:52:33.979Z,74.42
2019-03-23T18:55:00.162Z,66.95
2019-03-23T18:57:26.314Z,61.58
2019-03-23T18:59:52.491Z,60.00
2019-03-23T19:02:18.640Z,63.68
2019-03-23T19:04:57.845Z,56.15
2019-03-23T19:07:23.997Z,65.32
2019-03-23T19:09:50.503Z,60.43
2019-03-23T19:12:16.661Z,60.60
2019-03-23T19:14:42.821Z,58.45
2019-03-23T19:17:10.082Z,56.75
2019-03-23T19:19:36.245Z,60.30
2019-03-23T19:22:02.521Z,58.15
2019-03-23T19:24:28.992Z,58.45
2019-03-23T19:26:55.147Z,50.15
2019-03-23T19:29:21.504Z,53.75
2019-03-23T19:31:47.680Z,55.50
2019-03-23T19:34:13.911Z,58.87
2019-03-23T19:36:40.085Z,54.00
2019-03-23T19:39:06.835Z,51.45
2019-03-23T19:41:33.009Z,55.95
2019-03-23T19:43:59.165Z,49.40
2019-03-23T19:46:25.364Z,49.48
2019-03-23T19:48:51.519Z,56.60
2019-03-23T19:51:17.732Z,52.50
2019-03-23T19:53:43.888Z,50.40
2019-03-23T19:56:11.149Z,46.50
2019-03-23T19:58:37.323Z,53.60
2019-03-23T20:01:03.836Z,52.23
2019-03-23T20:03:30.021Z,57.98
2019-03-23T20:05:56.202Z,49.15
2019-03-23T20:08:22.359Z,56.08
2019-03-23T20:10:48.532Z,46.42
2019-03-23T20:13:14.672Z,47.10
2019-03-23T20:15:40.839Z,45.28
2019-03-23T20:18:07.047Z,46.18
2019-03-23T20:20:33.244Z,49.50
2019-03-23T20:22:59.423Z,41.28
2019-03-23T20:25:25.605Z,46.00
2019-03-23T20:27:51.754Z,42.90
2019-03-23T20:30:18.380Z,41.88
2019-03-23T20:32:44.733Z,42.67
2019-03-23T20:35:11.231Z,43.68
2019-03-23T20:37:37.500Z,46.73
2019-03-23T20:40:05.309Z,40.08
2019-03-23T20:42:31.689Z,44.77
2019-03-23T20:44:57.931Z,38.20
2019-03-23T20:47:24.117Z,41.95
2019-03-23T20:49:51.395Z,45.17
2019-03-23T20:52:17.580Z,45.23
2019-03-23T20:54:43.741Z,41.88
2019-03-23T20:57:09.923Z,36.00
2019-03-23T20:59:36.084Z,35.78
2019-03-23T21:02:02.328Z,35.85
2019-03-23T21:04:28.613Z,34.88
2019-03-23T21:06:54.826Z,39.03
2019-03-23T21:09:20.971Z,33.80
2019-03-23T21:11:47.149Z,34.85
2019-03-23T21:14:20.090Z,33.78
2019-03-23T21:16:42.495Z,33.53
2019-03-23T21:19:08.647Z,36.95
2019-03-23T21:21:35.172Z,40.60
2019-03-23T21:24:01.437Z,36.83
2019-03-23T21:26:27.615Z,40.12
2019-03-23T21:28:53.779Z,36.85
2019-03-23T21:31:19.939Z,30.48
2019-03-23T21:33:46.104Z,41.55
2019-03-23T21:36:12.292Z,33.45
2019-03-23T21:38:38.551Z,35.75
2019-03-23T21:41:04.737Z,33.10
2019-03-23T21:43:30.912Z,31.27
2019-03-23T21:45:57.104Z,33.50
2019-03-23T21:48:23.261Z,35.92
2019-03-23T21:50:49.438Z,35.13
2019-03-23T21:53:15.593Z,35.43
2019-03-23T21:55:41.767Z,36.35
2019-03-23T21:58:07.941Z,37.38
2019-03-23T22:00:34.428Z,36.15
2019-03-23T22:03:01.004Z,33.78
2019-03-23T22:05:27.161Z,35.90
2019-03-23T22:07:53.333Z,35.00
2019-03-23T22:10:19.492Z,34.23
2019-03-23T22:12:45.659Z,36.58
2019-03-23T22:15:12.568Z,37.75
2019-03-23T22:17:38.736Z,34.95
2019-03-23T22:20:06.899Z,34.55
2019-03-23T22:22:33.093Z,34.78
2019-03-23T22:25:00.328Z,37.55
2019-03-23T22:27:26.507Z,41.10
2019-03-23T22:29:52.683Z,42.48
2019-03-23T22:32:18.860Z,40.52
2019-03-23T22:34:45.020Z,37.65
2019-03-23T22:37:12.408Z,37.90
2019-03-23T22:39:38.560Z,36.88
2019-03-23T22:42:04.748Z,47.73
2019-03-23T22:44:30.903Z,41.48
2019-03-23T22:46:57.082Z,36.15
2019-03-23T22:49:23.293Z,38.00
2019-03-23T22:51:49.560Z,39.78
2019-03-23T22:54:16.771Z,44.48
2019-03-23T22:56:42.932Z,49.38
2019-03-23T22:59:09.087Z,45.58
2019-03-23T23:01:35.372Z,44.30
2019-03-23T23:04:01.527Z,45.38
2019-03-23T23:06:28.784Z,49.33
2019-03-23T23:08:54.964Z,43.68
2019-03-23T23:11:21.112Z,42.53
2019-03-23T23:13:47.374Z,42.08
2019-03-23T23:16:13.588Z,45.38
2019-03-23T23:18:39.739Z,42.08
2019-03-23T23:21:05.896Z,43.50
2019-03-23T23:23:32.085Z,44.73
2019-03-23T23:25:58.231Z,50.25
2019-03-23T23:28:24.501Z,48.95
2019-03-23T23:30:50.725Z,44.88
2019-03-23T23:33:17.015Z,43.55
2019-03-23T23:35:43.371Z,42.88
2019-03-23T23:38:09.544Z,40.67
2019-03-23T23:40:36.808Z,41.48
2019-03-23T23:43:03.103Z,45.73
2019-03-23T23:45:29.271Z,43.52
2019-03-23T23:47:55.758Z,45.90
2019-03-23T23:50:21.903Z,49.00
2019-03-23T23:52:48.071Z,159.40
2019-03-23T23:55:14.224Z,83.03
2019-03-23T23:57:40.400Z,76.62
